Schriever, LA (70395)

10:37 PM CDT on May 23, 2015 (GMT -0500)
Jerry's House (Schriever) | | Change Station
CLOSE
Current Station
Personal Weather Station
Location: Thibodaux, LA
Elevation: 11 ft
Nearby Weather Stations

Elev 11 ft 29.76 °N, 90.82 °W | Updated 26 seconds ago

Clear
Clear
76.1 °F
Feels Like 76 °F
N
3.0
Wind Variable Wind from SE
Gusts 7.0 mph

Today
High -- | Low -- °F
--% Chance of Precip.
Yesterday
High -- | Low -- °F
Precip. -- in
6:06 AM 7:54 PM
Waxing Crescent, 35% visible
Pressure 30.10 in
Visibility 10.0 miles
Clouds Clear
Heat Index 76 °F
Dew Point 74 °F
Humidity 92%
Rainfall 0.00 in
Snow Depth Not available.
UV 0 out of 12
Pollen 4.50 out of 12
Air Quality Not available.
Flu Activity Sporadic
METAR KHUM 240315Z AUTO 12006KT 10SM CLR 25/23 A3010 RMK AO2 T02500229

More Conditions Fewer Conditions

Pressure 30.10 in
Visibility 10.0 miles
Clouds Clear
Heat Index 76 °F
Dew Point 74 °F
Humidity 92%
Rainfall 0.00 in
Snow Depth Not available.
UV 0 out of 12
Pollen 4.50 out of 12
Air Quality Not available.
Flu Activity Sporadic
METAR KHUM 240315Z AUTO 12006KT 10SM CLR 25/23 A3010 RMK AO2 T02500229

More Conditions Fewer Conditions

10-Day Weather Forecast

Almanac

Astronomy

May. 23, 2015 Rise Set
Actual Time
Civil Twilight
Nautical Twilight
Astronomical Twilight
Moon
Length of Visible Light
Length of Day
Tomorrow will be .
, % of the Moon is Illuminated

Today's Extremes

State Highs State Lows

Community

WunderPhotos

Upload Photos

1,823,678 photos uploaded!

WunderBlogs® & News

Nearby

Air Quality

  Air Quality AQ Index Pollutant
Not available.

Snow Depth

Station Depth Elevation

Earthquake Activity

City Distance Mag. Time & Date
Minimum magnitude displayed is 2.5.

Coastal Water Temperatures

Place Temperature

Stations

Nearby Weather Stations

Station Location Temp. Windchill Dew Point Humidity Wind Precip. Elev Updated Type